Time;durP1;ratioP1;P1;durP2;ratioP2;P2;SDS_P1;SDS_P2;PMS_P1;PMS_P2;Temp;Humidity;BMP_temperature;BMP_pressure;BME280_temperature;BME280_humidity;BME280_pressure;Samples;Min_cycle;Max_cycle;Signal;HPM_P1;HPM_P2
2022/08/17 00:00:41;;;;;;;9.07;8.13;;;25.30;63.30;;;;;;5030068;28;20076;-75
2022/08/17 00:03:09;;;;;;;9.88;8.43;;;25.40;62.00;;;;;;5034819;28;20136;-75
2022/08/17 00:05:38;;;;;;;9.13;7.05;;;25.40;62.00;;;;;;5034084;28;20115;-75
2022/08/17 00:08:05;;;;;;;8.77;6.78;;;25.40;62.00;;;;;;5033950;28;20053;-75
2022/08/17 00:10:33;;;;;;;10.20;7.82;;;25.40;62.00;;;;;;5033712;28;20425;-74
2022/08/17 00:13:00;;;;;;;9.30;8.40;;;25.40;62.00;;;;;;5038855;28;20132;-75
2022/08/17 00:15:27;;;;;;;10.43;8.23;;;25.40;62.00;;;;;;5053551;28;20053;-76
2022/08/17 00:17:53;;;;;;;10.02;8.57;;;25.40;63.20;;;;;;5053466;28;20128;-76
2022/08/17 00:20:20;;;;;;;9.48;8.48;;;25.40;62.00;;;;;;5053293;28;20048;-75
2022/08/17 00:22:47;;;;;;;9.48;8.48;;;25.30;61.90;;;;;;5053084;28;20059;-76
2022/08/17 00:25:16;;;;;;;11.20;9.10;;;25.40;62.00;;;;;;5053494;28;20485;-75
2022/08/17 00:27:44;;;;;;;9.68;8.68;;;25.30;61.90;;;;;;5053189;28;20056;-76
2022/08/17 00:30:11;;;;;;;10.38;8.90;;;25.30;61.90;;;;;;5045032;28;20053;-76
2022/08/17 00:32:40;;;;;;;12.05;8.57;;;25.10;63.40;;;;;;5053243;28;20125;-75
2022/08/17 00:35:08;;;;;;;9.18;8.27;;;25.30;61.90;;;;;;5053437;28;20057;-75
2022/08/17 00:37:35;;;;;;;8.88;7.97;;;25.30;61.90;;;;;;5069840;28;20045;-76
2022/08/17 00:40:02;;;;;;;9.20;8.20;;;25.40;62.00;;;;;;5052882;28;20053;-76
2022/08/17 00:42:29;;;;;;;9.40;8.07;;;25.30;61.90;;;;;;5063016;28;20132;-75
2022/08/17 00:44:57;;;;;;;9.73;8.45;;;25.30;61.90;;;;;;5033169;28;20525;-75
2022/08/17 00:47:23;;;;;;;12.05;9.10;;;25.20;61.90;;;;;;5033115;28;20084;-75
2022/08/17 00:49:50;;;;;;;9.68;8.68;;;25.20;61.80;;;;;;5033145;28;20409;-75
2022/08/17 00:52:20;;;;;;;9.18;8.23;;;25.20;61.90;;;;;;5033054;28;20063;-75
2022/08/17 00:54:48;;;;;;;9.18;8.27;;;25.20;61.90;;;;;;5033182;28;20064;-75
2022/08/17 00:57:16;;;;;;;9.48;8.13;;;25.20;61.90;;;;;;5044956;28;20049;-75
2022/08/17 00:59:44;;;;;;;10.02;8.57;;;25.00;63.60;;;;;;5053909;28;20139;-75
2022/08/17 01:02:14;;;;;;;9.63;8.63;;;25.20;61.90;;;;;;5069429;28;20458;-75
2022/08/17 01:04:41;;;;;;;9.45;8.13;;;25.20;61.90;;;;;;5069537;28;20110;-75
2022/08/17 01:07:10;;;;;;;9.05;8.15;;;25.10;61.90;;;;;;5052570;28;20057;-74
2022/08/17 01:09:36;;;;;;;8.32;7.40;;;25.10;61.90;;;;;;5052442;28;20049;-75
2022/08/17 01:12:05;;;;;;;9.20;8.30;;;25.20;61.90;;;;;;5044487;28;20045;-75
2022/08/17 01:14:32;;;;;;;9.10;8.20;;;25.20;61.90;;;;;;5033740;28;20472;-75
2022/08/17 01:16:59;;;;;;;10.60;7.72;;;25.10;61.90;;;;;;5032759;28;20049;-75
2022/08/17 01:19:28;;;;;;;9.15;8.10;;;25.10;61.90;;;;;;5033528;28;20391;-75
2022/08/17 01:21:56;;;;;;;8.93;8.02;;;25.10;61.80;;;;;;5032378;28;20060;-75
2022/08/17 01:24:24;;;;;;;9.55;8.57;;;25.10;63.70;;;;;;5032355;28;20060;-75
2022/08/17 01:26:51;;;;;;;9.30;8.32;;;25.20;62.70;;;;;;5046564;28;20051;-75
2022/08/17 01:29:18;;;;;;;8.95;8.07;;;25.00;61.80;;;;;;5052452;28;20057;-75
2022/08/17 01:31:47;;;;;;;8.45;7.32;;;25.10;61.90;;;;;;5051962;28;20131;-75
2022/08/17 01:34:14;;;;;;;8.70;7.70;;;25.10;61.80;;;;;;5052210;28;20053;-75
2022/08/17 01:36:43;;;;;;;9.50;7.80;;;25.10;61.80;;;;;;5053188;28;20056;-75
2022/08/17 01:39:14;;;;;;;8.73;7.78;;;25.20;63.20;;;;;;5053247;28;20045;-75
2022/08/17 01:41:42;;;;;;;8.38;7.57;;;25.00;61.80;;;;;;5044997;28;20553;-74
2022/08/17 01:44:08;;;;;;;8.65;7.70;;;25.00;61.80;;;;;;5033069;28;20052;-74
2022/08/17 01:46:36;;;;;;;8.32;7.50;;;25.00;61.80;;;;;;5034102;28;20046;-73
2022/08/17 01:49:07;;;;;;;8.88;7.60;;;25.00;61.80;;;;;;5030374;28;20133;-75
2022/08/17 01:51:34;;;;;;;8.55;7.75;;;25.00;61.80;;;;;;5031869;28;20057;-75
2022/08/17 01:54:03;;;;;;;7.97;7.20;;;25.00;61.80;;;;;;5031455;28;20088;-75
2022/08/17 01:56:30;;;;;;;7.70;7.00;;;25.00;61.80;;;;;;5031998;28;20422;-75
2022/08/17 01:58:58;;;;;;;10.02;8.50;;;25.00;61.80;;;;;;5032929;28;20100;-75
2022/08/17 02:01:26;;;;;;;9.00;7.57;;;25.00;61.80;;;;;;5031320;28;20053;-75
2022/08/17 02:03:53;;;;;;;9.93;7.63;;;24.90;61.70;;;;;;5031717;28;20064;-75
2022/08/17 02:06:20;;;;;;;9.00;7.47;;;24.90;61.70;;;;;;5031746;28;20140;-75
2022/08/17 02:08:46;;;;;;;8.15;7.35;;;23.80;62.60;;;;;;5031570;28;20077;-75
2022/08/17 02:11:16;;;;;;;7.90;7.10;;;24.90;61.70;;;;;;5031426;28;20075;-74
2022/08/17 02:13:43;;;;;;;8.25;7.45;;;24.90;61.70;;;;;;5039295;28;20471;-75
2022/08/17 02:16:11;;;;;;;8.18;7.38;;;24.90;61.70;;;;;;5051478;28;20095;-75
2022/08/17 02:18:38;;;;;;;10.32;7.97;;;24.80;61.60;;;;;;5052460;28;20396;-75
2022/08/17 02:21:05;;;;;;;9.15;8.20;;;25.00;63.90;;;;;;5050644;28;20136;-75
2022/08/17 02:23:33;;;;;;;8.75;7.85;;;24.90;61.70;;;;;;5067625;28;20053;-75
2022/08/17 02:26:00;;;;;;;8.48;7.68;;;24.90;62.20;;;;;;5051404;28;20060;-74
2022/08/17 02:28:27;;;;;;;9.13;7.97;;;24.90;61.70;;;;;;5037119;28;20459;-75
2022/08/17 02:30:53;;;;;;;9.27;8.30;;;24.90;61.70;;;;;;5050025;28;20060;-74
2022/08/17 02:33:21;;;;;;;9.30;8.40;;;24.80;61.60;;;;;;5030954;28;20471;-75
2022/08/17 02:35:48;;;;;;;9.13;8.23;;;24.80;61.60;;;;;;5031303;28;20132;-75
2022/08/17 02:38:16;;;;;;;8.82;7.88;;;24.80;61.60;;;;;;5031148;28;20191;-75
2022/08/17 02:40:42;;;;;;;8.50;7.70;;;25.80;63.60;;;;;;5030779;28;20136;-74
2022/08/17 02:43:09;;;;;;;8.27;7.47;;;24.30;62.10;;;;;;5050454;28;20385;-75
2022/08/17 02:45:36;;;;;;;8.30;7.50;;;24.80;61.60;;;;;;5050804;28;20052;-74
2022/08/17 02:48:03;;;;;;;8.38;7.60;;;24.80;61.60;;;;;;5051006;28;20379;-75
2022/08/17 02:50:31;;;;;;;8.48;7.45;;;24.70;61.60;;;;;;5050532;28;20041;-75
2022/08/17 02:52:59;;;;;;;9.38;8.23;;;24.80;61.60;;;;;;5050785;28;20063;-75
2022/08/17 02:55:26;;;;;;;9.20;7.72;;;24.80;61.60;;;;;;5051038;28;20053;-73
2022/08/17 02:57:53;;;;;;;8.32;7.10;;;24.70;61.50;;;;;;5050021;28;20149;-73
2022/08/17 03:00:22;;;;;;;9.10;7.43;;;24.80;62.70;;;;;;5047710;28;20053;-73
2022/08/17 03:02:49;;;;;;;9.77;8.07;;;24.70;61.50;;;;;;5030898;28;20061;-73
2022/08/17 03:05:17;;;;;;;8.30;7.50;;;24.80;63.90;;;;;;5030890;28;20136;-73
2022/08/17 03:07:45;;;;;;;8.85;7.95;;;24.70;61.50;;;;;;5031870;28;20092;-73
2022/08/17 03:10:13;;;;;;;9.07;8.13;;;24.70;61.50;;;;;;5035578;28;20217;-73
2022/08/17 03:12:41;;;;;;;9.10;7.93;;;24.80;63.60;;;;;;5050693;28;20077;-73
2022/08/17 03:15:09;;;;;;;8.98;8.07;;;24.80;63.50;;;;;;5050325;28;20080;-73
2022/08/17 03:17:36;;;;;;;8.70;7.90;;;24.70;61.50;;;;;;5067348;28;20059;-73
2022/08/17 03:20:03;;;;;;;9.57;8.60;;;24.60;61.50;;;;;;5051351;28;20087;-73
2022/08/17 03:22:30;;;;;;;8.95;7.95;;;24.60;61.50;;;;;;5050221;28;20049;-73
2022/08/17 03:24:58;;;;;;;9.45;8.48;;;24.60;61.50;;;;;;5048711;28;20056;-73
2022/08/17 03:27:25;;;;;;;9.20;8.20;;;24.60;61.50;;;;;;5030322;28;20064;-73
2022/08/17 03:29:52;;;;;;;9.70;8.23;;;24.60;61.60;;;;;;5030573;28;20057;-73
2022/08/17 03:32:19;;;;;;;9.43;8.43;;;24.60;61.60;;;;;;5032710;28;20128;-73
2022/08/17 03:34:46;;;;;;;10.05;9.05;;;24.60;61.60;;;;;;5034334;28;20056;-74
2022/08/17 03:37:13;;;;;;;9.50;8.55;;;24.60;61.60;;;;;;5035661;28;20133;-73
2022/08/17 03:39:40;;;;;;;9.55;8.55;;;24.60;61.60;;;;;;5040579;28;20061;-74
2022/08/17 03:42:13;;;;;;;9.93;7.95;;;24.60;61.60;;;;;;5054051;28;20049;-73
2022/08/17 03:44:40;;;;;;;9.70;8.60;;;24.60;61.60;;;;;;5054341;28;20129;-74
2022/08/17 03:58:05;;;;;;;9.23;8.27;;;24.50;61.80;;;;;;5034379;28;20406;-73
2022/08/17 04:00:31;;;;;;;10.32;9.32;;;24.50;61.80;;;;;;5033611;28;20148;-73
2022/08/17 04:02:58;;;;;;;10.98;9.88;;;24.50;61.80;;;;;;5033857;28;20129;-75
2022/08/17 04:05:25;;;;;;;10.07;9.07;;;24.40;61.70;;;;;;5033968;28;20064;-73
2022/08/17 04:07:51;;;;;;;10.43;9.32;;;24.50;61.70;;;;;;5051040;28;20049;-73
2022/08/17 04:10:18;;;;;;;9.38;8.48;;;24.50;61.80;;;;;;5053494;28;20425;-73
2022/08/17 04:12:47;;;;;;;10.65;8.70;;;24.30;63.10;;;;;;5053544;28;20053;-74
2022/08/17 04:15:15;;;;;;;9.90;8.90;;;24.40;61.70;;;;;;5053829;28;20194;-73
2022/08/17 04:17:43;;;;;;;10.90;9.60;;;24.50;61.80;;;;;;5054782;28;20408;-73
2022/08/17 04:20:11;;;;;;;10.82;9.60;;;24.50;61.80;;;;;;5053507;28;20119;-73
2022/08/17 04:22:37;;;;;;;10.63;9.50;;;24.50;61.80;;;;;;5036858;28;20049;-73
2022/08/17 04:25:07;;;;;;;10.27;9.07;;;24.50;61.80;;;;;;5033827;28;20136;-73
2022/08/17 04:27:34;;;;;;;9.57;8.52;;;24.50;63.20;;;;;;5032369;28;20151;-73
2022/08/17 04:30:01;;;;;;;11.38;8.93;;;24.50;61.80;;;;;;5032234;28;20435;-73
2022/08/17 04:32:30;;;;;;;9.90;8.85;;;24.40;61.90;;;;;;5032077;28;20559;-73
2022/08/17 04:34:56;;;;;;;10.18;9.18;;;24.50;61.70;;;;;;5035483;28;20049;-75
2022/08/17 04:37:23;;;;;;;9.57;8.55;;;24.50;61.70;;;;;;5052252;28;20059;-74
2022/08/17 04:42:05;;;;;;;9.80;8.82;;;24.50;61.70;;;;;;5052256;28;20048;-75
2022/08/17 04:42:36;;;;;;;10.60;9.10;;;24.70;61.70;;;;;;5051146;28;20053;-74
2022/08/17 04:45:03;;;;;;;9.43;8.52;;;24.50;61.70;;;;;;5053039;28;20048;-75
2022/08/17 04:47:32;;;;;;;10.98;8.68;;;24.50;61.70;;;;;;5052098;28;20061;-75
2022/08/17 04:50:01;;;;;;;11.10;9.02;;;24.50;61.80;;;;;;5046603;28;20049;-75
2022/08/17 04:52:27;;;;;;;10.75;9.65;;;24.50;61.80;;;;;;5031689;28;20120;-74
2022/08/17 04:54:54;;;;;;;11.00;9.90;;;24.50;61.80;;;;;;5032096;28;20814;-75
2022/08/17 04:57:21;;;;;;;11.20;10.10;;;24.40;61.70;;;;;;5031796;28;20068;-75
2022/08/17 04:59:47;;;;;;;10.88;9.30;;;24.50;61.80;;;;;;5032147;28;20053;-75
2022/08/17 05:02:14;;;;;;;10.10;9.02;;;24.40;61.70;;;;;;5031463;28;20136;-75
2022/08/17 05:04:42;;;;;;;10.23;9.30;;;24.40;61.70;;;;;;5042001;28;20412;-75
2022/08/17 05:07:09;;;;;;;10.18;9.10;;;24.50;61.80;;;;;;5051746;28;20135;-75
2022/08/17 05:09:36;;;;;;;11.93;9.68;;;24.40;61.80;;;;;;5051506;28;20059;-74
2022/08/17 05:12:04;;;;;;;11.23;10.07;;;24.40;61.80;;;;;;5051327;28;20127;-75
2022/08/17 05:14:31;;;;;;;11.07;9.73;;;24.50;61.80;;;;;;5051581;28;20502;-76
2022/08/17 05:17:00;;;;;;;11.48;10.27;;;24.50;61.80;;;;;;5051669;28;20144;-76
2022/08/17 05:19:27;;;;;;;10.88;9.73;;;24.50;61.80;;;;;;5049089;28;20056;-75
2022/08/17 05:21:55;;;;;;;12.35;10.75;;;24.50;61.80;;;;;;5051189;28;20140;-76
2022/08/17 05:24:22;;;;;;;12.38;10.43;;;24.50;61.80;;;;;;5005010;28;1339216;-76
2022/08/17 05:26:48;;;;;;;10.82;9.73;;;24.50;61.80;;;;;;5052318;28;20136;-75
2022/08/17 05:29:15;;;;;;;10.73;9.63;;;24.50;61.80;;;;;;5052131;28;20060;-75
2022/08/17 05:31:42;;;;;;;12.50;11.15;;;24.50;61.80;;;;;;5053299;28;20051;-73
2022/08/17 05:34:08;;;;;;;11.20;9.98;;;24.50;61.90;;;;;;5040361;28;20144;-73
2022/08/17 05:36:37;;;;;;;12.77;11.00;;;24.40;61.80;;;;;;5032069;28;20399;-73
2022/08/17 05:39:05;;;;;;;12.15;10.80;;;24.40;61.80;;;;;;5032118;28;20081;-73
2022/08/17 05:41:32;;;;;;;12.30;11.00;;;24.40;61.80;;;;;;5031629;28;20045;-73
2022/08/17 05:43:58;;;;;;;12.52;11.20;;;23.40;63.00;;;;;;5048851;28;20053;-73
2022/08/17 05:46:26;;;;;;;11.88;10.68;;;24.50;61.90;;;;;;5033229;28;20064;-74
2022/08/17 05:48:54;;;;;;;12.10;10.90;;;24.40;61.80;;;;;;5042452;28;20144;-73
2022/08/17 05:51:34;;;;;;;11.38;10.18;;;24.40;61.80;;;;;;5051328;28;20063;-73
2022/08/17 05:54:09;;;;;;;12.15;10.90;;;24.40;61.80;;;;;;5051190;28;20053;-73
2022/08/17 05:56:50;;;;;;;12.20;11.00;;;24.40;61.90;;;;;;5052066;28;20496;-74
2022/08/17 05:59:20;;;;;;;12.32;11.00;;;24.40;61.90;;;;;;5052076;28;20140;-74
2022/08/17 06:01:50;;;;;;;12.02;10.82;;;24.50;61.90;;;;;;5048991;28;20052;-73
2022/08/17 06:04:19;;;;;;;11.50;10.30;;;24.40;61.90;;;;;;5046522;28;20512;-73
2022/08/17 06:06:48;;;;;;;11.63;10.43;;;24.50;62.00;;;;;;5031581;28;20061;-75
2022/08/17 06:09:35;;;;;;;12.35;10.93;;;24.40;61.90;;;;;;5030339;28;20080;-73
2022/08/17 06:12:07;;;;;;;12.88;11.25;;;24.50;61.90;;;;;;5031503;28;20064;-75
2022/08/17 06:14:45;;;;;;;12.13;10.85;;;24.50;64.10;;;;;;5031183;28;20064;-73
2022/08/17 06:17:13;;;;;;;12.23;10.98;;;24.40;62.00;;;;;;5030435;28;20056;-74
2022/08/17 06:19:41;;;;;;;12.25;10.43;;;24.40;62.00;;;;;;5030963;28;20057;-73
2022/08/17 06:22:08;;;;;;;12.48;11.18;;;24.40;62.00;;;;;;5030855;28;20049;-72
2022/08/17 06:24:37;;;;;;;13.45;10.98;;;24.40;62.10;;;;;;5030813;28;20049;-72
2022/08/17 06:27:07;;;;;;;12.93;10.88;;;24.30;62.00;;;;;;5045264;28;20455;-73
2022/08/17 06:29:39;;;;;;;14.75;13.25;;;24.40;62.10;;;;;;5031406;28;20429;-74
2022/08/17 06:32:07;;;;;;;15.45;12.43;;;24.40;62.20;;;;;;5057382;28;20144;-71
2022/08/17 06:34:34;;;;;;;17.58;13.45;;;24.40;62.20;;;;;;5050999;28;20053;-72
2022/08/17 06:37:06;;;;;;;19.83;15.05;;;24.40;62.30;;;;;;5050789;28;20044;-73
2022/08/17 06:39:40;;;;;;;16.63;14.77;;;24.40;62.40;;;;;;5051374;28;20122;-72
2022/08/17 06:42:12;;;;;;;15.80;14.00;;;24.40;62.50;;;;;;5030555;28;20421;-73
2022/08/17 06:44:42;;;;;;;15.80;14.10;;;24.50;64.40;;;;;;5030988;28;20065;-75
2022/08/17 06:47:11;;;;;;;15.13;13.52;;;24.30;62.50;;;;;;5030976;28;20132;-74
2022/08/17 06:49:45;;;;;;;17.02;13.52;;;24.40;62.60;;;;;;5034675;28;20108;-73
2022/08/17 06:52:14;;;;;;;13.57;12.18;;;24.50;62.60;;;;;;5030761;28;20053;-73
2022/08/17 06:54:45;;;;;;;14.80;13.23;;;24.40;62.60;;;;;;5047441;28;20045;-73
2022/08/17 06:57:13;;;;;;;14.00;12.43;;;24.40;62.60;;;;;;5031005;28;20520;-72
2022/08/17 06:59:49;;;;;;;15.52;13.30;;;24.30;62.50;;;;;;5030860;28;20139;-73
2022/08/17 07:02:19;;;;;;;18.42;15.68;;;24.40;62.60;;;;;;5029411;28;20052;-74
2022/08/17 07:04:45;;;;;;;19.05;14.02;;;24.40;62.80;;;;;;5030161;28;20140;-73
2022/08/17 07:09:59;;;;;;;15.52;12.30;;;24.30;62.70;;;;;;5030741;28;20132;-74
2022/08/17 07:12:28;;;;;;;13.75;11.40;;;24.60;62.80;;;;;;5030673;28;20071;-75
2022/08/17 07:14:58;;;;;;;13.93;11.90;;;24.30;62.70;;;;;;5030522;28;20057;-75
2022/08/17 07:17:25;;;;;;;16.08;11.65;;;24.40;62.80;;;;;;5030795;28;20087;-75
2022/08/17 07:19:54;;;;;;;13.90;10.80;;;24.40;62.70;;;;;;5030380;28;20060;-74
2022/08/17 07:22:23;;;;;;;12.02;10.52;;;24.40;63.70;;;;;;5037092;28;20053;-75
2022/08/17 07:24:55;;;;;;;13.07;10.43;;;24.40;62.60;;;;;;5050523;28;20063;-74
2022/08/17 07:27:26;;;;;;;10.80;9.70;;;24.40;62.60;;;;;;5050646;28;20509;-74
2022/08/17 07:29:55;;;;;;;10.38;9.25;;;24.40;62.60;;;;;;5049984;28;20178;-75
2022/08/17 07:32:24;;;;;;;10.73;8.90;;;24.40;62.60;;;;;;5050502;28;20524;-75
2022/08/17 07:35:16;;;;;;;10.40;8.88;;;24.40;62.60;;;;;;5067327;28;20075;-75
2022/08/17 07:37:44;;;;;;;9.90;8.80;;;24.40;62.40;;;;;;5018437;28;20092;-75
2022/08/17 07:40:20;;;;;;;9.43;8.43;;;24.40;62.50;;;;;;5030280;28;20136;-76
2022/08/17 07:43:16;;;;;;;9.98;8.35;;;24.40;62.50;;;;;;5030236;28;20474;-75
2022/08/17 07:48:43;;;;;;;8.35;6.95;;;24.40;62.50;;;;;;5033298;28;20041;-75
2022/08/17 07:51:19;;;;;;;9.38;7.43;;;24.40;62.60;;;;;;5030304;28;20110;-73
2022/08/17 07:53:46;;;;;;;7.85;7.05;;;24.40;62.40;;;;;;5030125;28;20132;-73
2022/08/17 07:56:31;;;;;;;9.07;7.43;;;24.40;62.50;;;;;;5031459;28;20470;-74
2022/08/17 07:59:07;;;;;;;9.80;7.57;;;24.40;62.40;;;;;;5029999;28;20140;-73
2022/08/17 08:01:36;;;;;;;6.88;6.18;;;24.40;62.40;;;;;;5030223;28;20136;-73
2022/08/17 08:04:15;;;;;;;6.85;6.00;;;24.40;62.40;;;;;;5030350;28;20089;-73
2022/08/17 08:06:47;;;;;;;6.63;5.63;;;24.40;62.30;;;;;;5030634;28;20068;-73
2022/08/17 08:09:27;;;;;;;7.60;6.22;;;24.40;62.20;;;;;;5031196;28;20124;-72
2022/08/17 08:11:54;;;;;;;7.38;6.30;;;24.40;62.30;;;;;;5037450;28;20512;-73
2022/08/17 08:14:24;;;;;;;9.05;5.60;;;24.40;62.30;;;;;;5036928;28;20454;-75
2022/08/17 08:16:56;;;;;;;7.43;6.15;;;24.40;62.30;;;;;;5029914;28;20140;-75
2022/08/17 08:19:25;;;;;;;6.65;5.95;;;24.40;62.20;;;;;;5047241;28;20140;-75
2022/08/17 08:21:58;;;;;;;6.80;5.95;;;24.40;62.20;;;;;;5053208;28;20136;-75
2022/08/17 08:24:54;;;;;;;6.13;5.53;;;24.30;63.90;;;;;;5070384;28;20063;-75
2022/08/17 08:27:26;;;;;;;;;;;24.40;62.00;;;;;;5054289;28;20489;-75
2022/08/17 08:29:56;;;;;;;5.72;5.15;;;24.30;62.00;;;;;;5053502;28;19921;-73
2022/08/17 08:32:29;;;;;;;5.78;5.28;;;24.40;62.20;;;;;;5053205;28;20045;-72
2022/08/17 08:35:01;;;;;;;5.97;5.22;;;24.40;62.10;;;;;;5053646;28;20061;-73
2022/08/17 08:37:33;;;;;;;5.70;5.20;;;24.80;64.20;;;;;;5050302;28;20049;-72
2022/08/17 08:40:07;;;;;;;6.60;5.20;;;24.50;62.10;;;;;;5034644;28;20133;-73
2022/08/17 08:42:36;;;;;;;5.90;5.07;;;24.50;62.00;;;;;;5032974;28;20387;-73
2022/08/17 08:45:09;;;;;;;5.72;5.07;;;24.50;62.00;;;;;;5033411;28;20061;-72
2022/08/17 08:47:58;;;;;;;5.40;4.90;;;24.80;64.50;;;;;;5033487;28;20067;-75
2022/08/17 08:50:27;;;;;;;5.72;5.13;;;24.60;61.90;;;;;;5033176;28;20057;-74
2022/08/17 08:53:09;;;;;;;5.85;5.25;;;24.60;62.00;;;;;;5042631;28;20140;-74
2022/08/17 08:55:47;;;;;;;5.80;5.20;;;24.60;62.00;;;;;;5034438;28;20112;-73
2022/08/17 08:58:15;;;;;;;5.75;5.20;;;24.60;61.90;;;;;;5034281;28;20073;-72
2022/08/17 09:00:46;;;;;;;5.80;5.22;;;25.70;64.40;;;;;;5033395;28;20050;-73
2022/08/17 09:03:52;;;;;;;5.47;4.97;;;24.60;61.90;;;;;;5031701;28;20045;-73
2022/08/17 09:06:30;;;;;;;5.15;4.65;;;24.60;61.80;;;;;;5008382;28;20053;-74
2022/08/17 09:09:02;;;;;;;5.28;4.75;;;24.60;64.20;;;;;;5033822;28;20124;-72
2022/08/17 09:11:34;;;;;;;4.90;4.40;;;24.60;61.90;;;;;;5033514;28;20046;-74
2022/08/17 09:14:05;;;;;;;4.88;4.47;;;24.90;62.00;;;;;;5033625;28;20096;-76
2022/08/17 09:16:36;;;;;;;5.25;4.75;;;24.60;61.80;;;;;;5032062;28;20434;-72
2022/08/17 09:19:05;;;;;;;6.93;4.95;;;25.70;63.70;;;;;;5033301;28;20128;-72
2022/08/17 09:21:36;;;;;;;5.20;4.70;;;24.50;61.70;;;;;;5032425;28;20061;-72
2022/08/17 09:24:06;;;;;;;5.20;4.70;;;24.60;61.80;;;;;;5048251;28;20060;-74
2022/08/17 09:26:36;;;;;;;5.68;4.70;;;24.60;61.80;;;;;;5024141;28;20072;-73
2022/08/17 09:29:08;;;;;;;5.30;4.80;;;24.60;61.80;;;;;;5047591;28;20056;-75
2022/08/17 09:31:38;;;;;;;5.60;4.57;;;24.60;63.20;;;;;;5031913;28;20502;-75
2022/08/17 09:34:08;;;;;;;6.18;5.05;;;25.10;63.50;;;;;;5048052;28;20052;-72
2022/08/17 09:36:36;;;;;;;5.30;4.82;;;24.60;61.80;;;;;;5029772;28;20057;-73
2022/08/17 09:39:05;;;;;;;5.22;4.72;;;24.60;61.80;;;;;;5032065;28;20049;-72
2022/08/17 09:41:35;;;;;;;5.50;5.00;;;24.60;61.90;;;;;;5031452;28;20160;-72
2022/08/17 09:44:05;;;;;;;5.70;5.20;;;24.60;61.90;;;;;;5032708;28;20052;-72
2022/08/17 09:46:34;;;;;;;6.35;5.75;;;24.60;61.90;;;;;;5031985;28;20045;-74
2022/08/17 09:49:08;;;;;;;7.03;5.25;;;24.60;62.00;;;;;;5032590;28;20132;-73
2022/08/17 09:51:36;;;;;;;6.63;5.93;;;24.60;62.00;;;;;;5047664;28;20041;-72
2022/08/17 09:54:02;;;;;;;5.68;5.07;;;24.60;62.10;;;;;;5031610;28;20071;-73
2022/08/17 09:56:39;;;;;;;5.70;5.18;;;24.60;62.10;;;;;;5032131;28;20132;-76
2022/08/17 09:59:26;;;;;;;5.57;5.07;;;24.60;62.00;;;;;;5032075;28;20066;-76
2022/08/17 10:01:58;;;;;;;5.88;5.28;;;24.60;62.00;;;;;;5046743;28;20056;-75
2022/08/17 10:04:34;;;;;;;6.53;5.28;;;24.60;62.00;;;;;;5029004;28;20049;-74
2022/08/17 10:07:03;;;;;;;5.70;5.10;;;24.60;62.00;;;;;;5029551;28;20640;-74
2022/08/17 10:09:47;;;;;;;6.00;4.85;;;24.70;63.80;;;;;;5029589;28;20057;-74
2022/08/17 10:12:20;;;;;;;5.38;4.88;;;24.70;61.90;;;;;;5029957;28;20139;-75
2022/08/17 10:15:04;;;;;;;5.20;4.70;;;24.70;61.80;;;;;;5030381;28;20602;-75
2022/08/17 10:17:35;;;;;;;5.93;4.87;;;24.90;63.40;;;;;;5030211;28;20075;-73
2022/08/17 10:20:06;;;;;;;6.53;4.60;;;24.70;61.70;;;;;;5029729;28;20732;-75
2022/08/17 10:28:06;;;;;;;7.32;4.90;;;24.80;61.60;;;;;;5029480;28;20731;-75
2022/08/17 10:30:34;;;;;;;5.63;4.60;;;24.90;61.70;;;;;;5031516;28;20136;-75
2022/08/17 10:33:01;;;;;;;5.43;4.53;;;24.90;61.60;;;;;;5031179;28;20132;-74
2022/08/17 10:35:35;;;;;;;5.50;4.90;;;24.90;61.50;;;;;;5030979;28;20486;-75
2022/08/17 10:38:14;;;;;;;5.32;4.80;;;24.90;61.50;;;;;;5029644;28;20516;-74
2022/08/17 10:40:46;;;;;;;5.53;4.85;;;24.90;61.50;;;;;;5030144;28;20049;-73
2022/08/17 10:43:25;;;;;;;5.47;4.97;;;24.90;61.50;;;;;;5031797;28;20049;-73
2022/08/17 10:45:56;;;;;;;5.50;4.95;;;24.90;61.50;;;;;;5030570;28;20042;-73
2022/08/17 10:48:29;;;;;;;5.80;5.20;;;24.90;61.40;;;;;;5044804;28;20067;-73
2022/08/17 10:51:02;;;;;;;5.93;5.20;;;24.90;61.40;;;;;;5031420;28;20124;-73
2022/08/17 10:53:59;;;;;;;6.00;5.25;;;24.90;61.40;;;;;;5028910;28;20049;-73
2022/08/17 10:56:45;;;;;;;7.53;5.78;;;24.90;63.00;;;;;;5028538;28;20529;-73
2022/08/17 10:59:46;;;;;;;5.65;5.15;;;24.90;61.50;;;;;;5031126;28;20096;-73
2022/08/17 11:02:15;;;;;;;8.40;5.47;;;25.00;61.50;;;;;;5030590;28;20049;-74
2022/08/17 11:04:56;;;;;;;6.97;5.35;;;24.90;61.50;;;;;;5030527;28;20067;-72
2022/08/17 11:07:33;;;;;;;5.60;5.07;;;25.00;61.50;;;;;;5030946;28;20466;-73
2022/08/17 11:10:20;;;;;;;6.13;5.38;;;25.10;63.30;;;;;;5029928;28;20050;-73
2022/08/17 11:12:53;;;;;;;5.82;5.18;;;25.00;61.50;;;;;;5030288;28;20453;-73
2022/08/17 11:15:25;;;;;;;7.43;5.45;;;24.90;61.50;;;;;;5031653;28;20045;-73
2022/08/17 11:18:14;;;;;;;5.75;5.10;;;24.90;61.50;;;;;;5030327;28;20136;-73
2022/08/17 11:21:13;;;;;;;6.15;5.40;;;25.00;61.50;;;;;;5029826;28;20053;-73
2022/08/17 11:23:49;;;;;;;5.63;5.10;;;25.00;61.50;;;;;;5029181;28;20088;-73
2022/08/17 11:26:24;;;;;;;6.72;5.20;;;25.00;61.60;;;;;;5031627;28;20124;-73
2022/08/17 11:28:55;;;;;;;8.30;6.18;;;24.90;61.50;;;;;;5030269;28;20506;-74
2022/08/17 11:31:28;;;;;;;6.88;5.53;;;24.90;61.60;;;;;;5029903;28;20391;-73
2022/08/17 11:33:57;;;;;;;6.78;5.78;;;25.00;61.60;;;;;;5030164;28;20056;-73
2022/08/17 11:37:00;;;;;;;7.50;6.32;;;25.00;61.70;;;;;;5030965;28;20057;-75
2022/08/17 11:39:42;;;;;;;6.10;5.50;;;25.00;61.60;;;;;;5031004;28;20140;-75
2022/08/17 11:42:16;;;;;;;6.75;5.75;;;25.00;61.70;;;;;;5030716;28;20588;-74
2022/08/17 11:44:50;;;;;;;6.63;5.93;;;25.00;61.70;;;;;;5030429;28;20056;-74
2022/08/17 11:53:05;;;;;;;6.15;5.13;;;25.00;61.40;;;;;;5032065;28;20077;-73
2022/08/17 11:56:08;;;;;;;5.40;4.90;;;25.10;61.50;;;;;;5034425;28;20081;-75
2022/08/17 11:58:37;;;;;;;6.57;5.57;;;25.10;61.30;;;;;;4959197;28;20073;-73
2022/08/17 12:01:04;;;;;;;6.05;5.40;;;25.10;61.30;;;;;;4973935;28;20051;-73
2022/08/17 12:03:47;;;;;;;5.57;4.88;;;25.10;61.20;;;;;;5002857;28;20124;-73
2022/08/17 12:06:42;;;;;;;6.38;5.30;;;25.20;61.10;;;;;;5035616;28;20072;-74
2022/08/17 12:09:12;;;;;;;6.88;6.18;;;25.20;61.20;;;;;;5017270;28;20053;-75
2022/08/17 12:11:42;;;;;;;7.20;6.18;;;25.20;61.30;;;;;;5034595;28;20132;-73
2022/08/17 12:14:09;;;;;;;7.13;5.68;;;25.10;61.30;;;;;;5033690;28;20124;-74
2022/08/17 12:16:37;;;;;;;6.53;5.82;;;25.20;61.40;;;;;;5034283;28;20057;-73
2022/08/17 12:19:04;;;;;;;6.03;5.35;;;25.10;61.30;;;;;;5034265;28;20089;-75
2022/08/17 12:21:40;;;;;;;5.88;5.32;;;25.20;61.40;;;;;;5034189;28;20049;-75
2022/08/17 12:24:15;;;;;;;5.57;5.07;;;25.20;61.40;;;;;;5034343;28;20533;-75
2022/08/17 12:26:44;;;;;;;6.05;5.45;;;24.20;62.10;;;;;;5034403;28;20137;-75
2022/08/17 12:29:13;;;;;;;6.70;6.00;;;25.20;61.40;;;;;;5034672;28;20095;-75
2022/08/17 12:31:43;;;;;;;7.80;5.80;;;25.30;63.20;;;;;;5034211;28;20059;-75
2022/08/17 12:34:13;;;;;;;6.00;5.30;;;25.20;61.50;;;;;;5034402;28;20064;-75
2022/08/17 12:36:40;;;;;;;6.05;5.18;;;25.20;61.50;;;;;;5033810;28;20472;-74
2022/08/17 12:39:07;;;;;;;5.47;4.95;;;25.00;61.70;;;;;;5033556;28;20136;-75
2022/08/17 12:41:37;;;;;;;5.80;5.20;;;25.10;61.40;;;;;;5033707;28;20136;-75
2022/08/17 12:44:08;;;;;;;7.13;5.40;;;25.20;61.40;;;;;;5034838;28;20153;-75
2022/08/17 12:46:50;;;;;;;7.32;5.68;;;26.00;63.50;;;;;;5034367;28;20068;-75
2022/08/17 12:49:26;;;;;;;6.10;5.60;;;25.20;61.40;;;;;;5034193;28;20061;-74
2022/08/17 12:51:57;;;;;;;5.63;5.10;;;25.20;61.60;;;;;;5034971;28;20049;-75
2022/08/17 12:54:27;;;;;;;5.93;5.32;;;25.20;61.60;;;;;;5033084;28;20383;-74
2022/08/17 12:56:53;;;;;;;5.60;5.10;;;25.20;61.50;;;;;;5033376;28;20136;-75
2022/08/17 12:59:22;;;;;;;6.22;5.40;;;25.30;61.60;;;;;;5033785;28;20063;-73
2022/08/17 13:01:49;;;;;;;5.90;5.30;;;25.20;62.10;;;;;;5032795;28;20088;-73
2022/08/17 13:04:16;;;;;;;7.13;5.50;;;25.20;61.50;;;;;;5033009;28;20136;-73
2022/08/17 13:06:48;;;;;;;5.55;4.88;;;25.10;61.50;;;;;;5034203;28;20079;-74
2022/08/17 13:09:18;;;;;;;5.65;5.10;;;25.20;61.50;;;;;;5034038;28;20132;-74
2022/08/17 13:11:48;;;;;;;5.68;5.10;;;25.20;61.60;;;;;;5032871;28;20136;-75
2022/08/17 13:14:17;;;;;;;5.75;5.20;;;25.20;61.60;;;;;;5031472;28;20137;-76
2022/08/17 13:16:49;;;;;;;5.50;4.95;;;25.20;63.20;;;;;;5031403;28;20063;-76
2022/08/17 13:19:20;;;;;;;5.40;4.80;;;25.20;61.60;;;;;;5032949;28;20067;-74
2022/08/17 13:21:49;;;;;;;5.20;4.72;;;25.20;61.60;;;;;;5032370;28;20387;-76
2022/08/17 13:24:17;;;;;;;5.45;4.88;;;25.20;61.70;;;;;;5032211;28;20049;-75
2022/08/17 13:26:45;;;;;;;6.30;5.35;;;25.20;61.70;;;;;;5032515;28;20088;-75
2022/08/17 13:29:22;;;;;;;5.43;4.80;;;25.20;61.70;;;;;;5032432;28;20064;-73